createdAt,value
2017-08-04T00:01:07.579Z,1002.87
2017-08-04T00:02:08.191Z,1002.89
2017-08-04T00:03:08.800Z,1002.87
2017-08-04T00:04:09.412Z,1002.88
2017-08-04T00:05:10.031Z,1002.92
2017-08-04T00:06:10.654Z,1002.93
2017-08-04T00:07:11.283Z,1002.92
2017-08-04T00:08:11.886Z,1002.88
2017-08-04T00:09:12.503Z,1002.91
2017-08-04T00:10:13.121Z,1002.91
2017-08-04T00:11:13.737Z,1002.87
2017-08-04T00:12:14.360Z,1002.86
2017-08-04T00:13:14.966Z,1002.86
2017-08-04T00:14:15.589Z,1002.85
2017-08-04T00:15:16.198Z,1002.87
2017-08-04T00:16:16.825Z,1002.82
2017-08-04T00:17:17.422Z,1002.84
2017-08-04T00:18:18.024Z,1002.83
2017-08-04T00:19:18.633Z,1002.82
2017-08-04T00:20:19.245Z,1002.81
2017-08-04T00:21:19.869Z,1002.82
2017-08-04T00:22:20.500Z,1002.78
2017-08-04T00:23:21.111Z,1002.74
2017-08-04T00:24:21.726Z,1002.76
2017-08-04T00:25:22.351Z,1002.72
2017-08-04T00:26:22.963Z,1002.73
2017-08-04T00:27:23.594Z,1002.69
2017-08-04T00:28:24.215Z,1002.66
2017-08-04T00:29:24.817Z,1002.67
2017-08-04T00:30:25.430Z,1002.69
2017-08-04T00:31:26.042Z,1002.64
2017-08-04T00:32:26.667Z,1002.62
2017-08-04T00:33:27.389Z,1002.66
2017-08-04T00:34:27.998Z,1002.63
2017-08-04T00:35:28.613Z,1002.62
2017-08-04T00:36:29.207Z,1002.64
2017-08-04T00:37:29.817Z,1002.65
2017-08-04T00:38:30.432Z,1002.63
2017-08-04T00:39:31.045Z,1002.67
2017-08-04T00:40:31.651Z,1002.67
2017-08-04T00:41:32.262Z,1002.64
2017-08-04T00:42:32.884Z,1002.64
2017-08-04T00:43:33.493Z,1002.69
2017-08-04T00:44:34.107Z,1002.67
2017-08-04T00:45:34.728Z,1002.66
2017-08-04T00:46:35.330Z,1002.68
2017-08-04T00:47:35.955Z,1002.68
2017-08-04T00:48:36.631Z,1002.70
2017-08-04T00:49:37.258Z,1002.74
2017-08-04T00:50:37.860Z,1002.73
2017-08-04T00:51:38.473Z,1002.74
2017-08-04T00:52:39.101Z,1002.72
2017-08-04T00:53:39.708Z,1002.69
2017-08-04T00:54:40.341Z,1002.70
2017-08-04T00:55:40.970Z,1002.72
2017-08-04T00:56:41.568Z,1002.72
2017-08-04T00:57:42.175Z,1002.75
2017-08-04T00:58:42.805Z,1002.75
2017-08-04T00:59:43.433Z,1002.76
2017-08-04T01:00:44.039Z,1002.74
2017-08-04T01:01:44.670Z,1002.74
2017-08-04T01:02:45.271Z,1002.73
2017-08-04T01:03:45.872Z,1002.74
2017-08-04T01:04:46.483Z,1002.75
2017-08-04T01:05:47.099Z,1002.78
2017-08-04T01:06:47.711Z,1002.79
2017-08-04T01:07:48.332Z,1002.79
2017-08-04T01:08:48.944Z,1002.83
2017-08-04T01:09:49.569Z,1002.87
2017-08-04T01:10:50.168Z,1002.85
2017-08-04T01:11:50.775Z,1002.86
2017-08-04T01:12:51.374Z,1002.86
2017-08-04T01:13:51.987Z,1002.84
2017-08-04T01:14:52.598Z,1002.88
2017-08-04T01:15:53.214Z,1002.93
2017-08-04T01:16:53.837Z,1002.91
2017-08-04T01:17:54.458Z,1002.94
2017-08-04T01:18:55.067Z,1002.93
2017-08-04T01:19:55.680Z,1002.94
2017-08-04T01:20:56.290Z,1002.88
2017-08-04T01:21:56.904Z,1002.98
2017-08-04T01:22:57.533Z,1002.91
2017-08-04T01:23:58.160Z,1002.94
2017-08-04T01:24:58.792Z,1002.97
2017-08-04T01:25:59.412Z,1002.94
2017-08-04T01:27:00.036Z,1002.96
2017-08-04T01:28:00.666Z,1002.91
2017-08-04T01:29:01.300Z,1002.95
2017-08-04T01:30:01.925Z,1002.91
2017-08-04T01:31:02.537Z,1002.92
2017-08-04T01:32:03.153Z,1002.88
2017-08-04T01:33:03.761Z,1002.89
2017-08-04T01:34:04.385Z,1002.93
2017-08-04T01:35:04.987Z,1002.89
2017-08-04T01:36:05.594Z,1002.89
2017-08-04T01:37:06.214Z,1002.89
2017-08-04T01:38:06.827Z,1002.88
2017-08-04T01:39:07.449Z,1002.85
2017-08-04T01:40:08.079Z,1002.87
2017-08-04T01:41:08.698Z,1002.84
2017-08-04T01:42:09.321Z,1002.86
2017-08-04T01:43:09.943Z,1002.80
2017-08-04T01:44:10.564Z,1002.81
2017-08-04T01:45:11.183Z,1002.84
2017-08-04T01:46:11.793Z,1002.88
2017-08-04T01:47:12.386Z,1002.91
2017-08-04T01:48:13.011Z,1002.92
2017-08-04T01:49:13.634Z,1002.96
2017-08-04T01:50:14.247Z,1002.93
2017-08-04T01:51:14.846Z,1002.86
2017-08-04T01:52:15.444Z,1002.91
2017-08-04T01:53:16.047Z,1002.92
2017-08-04T01:54:16.657Z,1002.99
2017-08-04T01:55:17.268Z,1002.94
2017-08-04T01:56:17.877Z,1002.94
2017-08-04T01:57:18.499Z,1002.91
2017-08-04T01:58:19.125Z,1002.97
2017-08-04T01:59:19.733Z,1002.94
2017-08-04T02:00:20.349Z,1002.96
2017-08-04T02:01:20.944Z,1002.95
2017-08-04T02:02:21.552Z,1002.89
2017-08-04T02:03:22.148Z,1002.95
2017-08-04T02:04:22.758Z,1002.94
2017-08-04T02:05:23.373Z,1002.98
2017-08-04T02:06:23.991Z,1002.99
2017-08-04T02:07:24.610Z,1002.98
2017-08-04T02:08:25.236Z,1003.02
2017-08-04T02:09:25.854Z,1003.01
2017-08-04T02:10:26.472Z,1002.99
2017-08-04T02:11:27.080Z,1002.99
2017-08-04T02:12:27.697Z,1002.95
2017-08-04T02:13:28.305Z,1002.94
2017-08-04T02:14:28.929Z,1002.93
2017-08-04T02:15:29.566Z,1002.96
2017-08-04T02:16:30.160Z,1003.03
2017-08-04T02:17:30.760Z,1003.04
2017-08-04T02:18:31.388Z,1003.04
2017-08-04T02:19:31.996Z,1003.03
2017-08-04T02:20:32.612Z,1003.02
2017-08-04T02:21:33.224Z,1002.98
2017-08-04T02:22:33.847Z,1002.96
2017-08-04T02:23:34.468Z,1002.92
2017-08-04T02:24:35.083Z,1002.90
2017-08-04T02:25:35.702Z,1002.88
2017-08-04T02:26:36.319Z,1002.87
2017-08-04T02:27:36.934Z,1002.93
2017-08-04T02:28:37.533Z,1002.87
2017-08-04T02:29:38.156Z,1002.87
2017-08-04T02:30:38.760Z,1002.88
2017-08-04T02:31:39.383Z,1002.89
2017-08-04T02:32:40.023Z,1002.85
2017-08-04T02:33:40.646Z,1002.83
2017-08-04T02:34:41.277Z,1002.82
2017-08-04T02:35:41.905Z,1002.91
2017-08-04T02:36:42.533Z,1002.87
2017-08-04T02:37:43.164Z,1002.89
2017-08-04T02:38:43.795Z,1002.88
2017-08-04T02:39:44.394Z,1002.87
2017-08-04T02:40:44.992Z,1002.79
2017-08-04T02:41:45.606Z,1002.80
2017-08-04T02:42:46.225Z,1002.79
2017-08-04T02:43:46.835Z,1002.78
2017-08-04T02:44:47.450Z,1002.83
2017-08-04T02:45:48.051Z,1002.82
2017-08-04T02:46:48.649Z,1002.83
2017-08-04T02:47:49.272Z,1002.83
2017-08-04T02:48:49.898Z,1002.82
2017-08-04T02:49:50.499Z,1002.82
2017-08-04T02:50:51.110Z,1002.80
2017-08-04T02:51:51.712Z,1002.78
2017-08-04T02:52:52.327Z,1002.76
2017-08-04T02:53:52.940Z,1002.78
2017-08-04T02:54:53.551Z,1002.72
2017-08-04T02:55:54.174Z,1002.70
2017-08-04T02:56:54.784Z,1002.70
2017-08-04T02:57:55.400Z,1002.72
2017-08-04T02:58:56.018Z,1002.77
2017-08-04T02:59:56.639Z,1002.81
2017-08-04T03:00:57.263Z,1002.80
2017-08-04T03:01:57.878Z,1002.80
2017-08-04T03:02:58.512Z,1002.80
2017-08-04T03:03:59.141Z,1002.77
2017-08-04T03:04:59.768Z,1002.76
2017-08-04T03:06:00.386Z,1002.76
2017-08-04T03:07:01.003Z,1002.74
2017-08-04T03:08:01.611Z,1002.75
2017-08-04T03:09:02.221Z,1002.76
2017-08-04T03:10:02.861Z,1002.75
2017-08-04T03:11:03.477Z,1002.73
2017-08-04T03:12:04.091Z,1002.72
2017-08-04T03:13:04.710Z,1002.75
2017-08-04T03:14:05.318Z,1002.78
2017-08-04T03:15:05.949Z,1002.75
2017-08-04T03:16:06.548Z,1002.73
2017-08-04T03:17:07.162Z,1002.71
2017-08-04T03:18:07.783Z,1002.70
2017-08-04T03:19:08.406Z,1002.63
2017-08-04T03:20:08.999Z,1002.66
2017-08-04T03:21:09.606Z,1002.63
2017-08-04T03:22:10.224Z,1002.65
2017-08-04T03:23:10.838Z,1002.62
2017-08-04T03:24:11.449Z,1002.67
2017-08-04T03:25:12.051Z,1002.62
2017-08-04T03:26:12.668Z,1002.61
2017-08-04T03:27:13.287Z,1002.58
2017-08-04T03:28:13.899Z,1002.55
2017-08-04T03:29:14.499Z,1002.58
2017-08-04T03:30:15.109Z,1002.58
2017-08-04T03:31:15.733Z,1002.59
2017-08-04T03:32:16.343Z,1002.57
2017-08-04T03:33:16.948Z,1002.64
2017-08-04T03:34:17.558Z,1002.65
2017-08-04T03:35:18.169Z,1002.60
2017-08-04T03:36:18.780Z,1002.69
2017-08-04T03:37:19.399Z,1002.67
2017-08-04T03:38:20.011Z,1002.72
2017-08-04T03:39:20.614Z,1002.71
2017-08-04T03:40:21.219Z,1002.68
2017-08-04T03:41:21.827Z,1002.74
2017-08-04T03:42:22.447Z,1002.76
2017-08-04T03:43:23.075Z,1002.73
2017-08-04T03:44:23.690Z,1002.74
2017-08-04T03:45:24.305Z,1002.78
2017-08-04T03:46:24.904Z,1002.77
2017-08-04T03:47:25.525Z,1002.79
2017-08-04T03:48:26.140Z,1002.77
2017-08-04T03:49:26.772Z,1002.74
2017-08-04T03:50:27.393Z,1002.71
2017-08-04T03:51:28.003Z,1002.73
2017-08-04T03:52:28.633Z,1002.72
2017-08-04T03:53:29.251Z,1002.73
2017-08-04T03:54:29.854Z,1002.71
2017-08-04T03:55:30.477Z,1002.76
2017-08-04T03:56:31.113Z,1002.72
2017-08-04T03:57:31.731Z,1002.67
2017-08-04T03:58:32.339Z,1002.68
2017-08-04T03:59:32.954Z,1002.75
2017-08-04T04:00:33.572Z,1002.79
2017-08-04T04:01:34.190Z,1002.80
2017-08-04T04:02:34.805Z,1002.81
2017-08-04T04:03:35.410Z,1002.85
2017-08-04T04:04:36.029Z,1002.90
2017-08-04T04:05:36.660Z,1002.86
2017-08-04T04:06:37.282Z,1002.86
2017-08-04T04:07:37.882Z,1002.85
2017-08-04T04:08:38.503Z,1002.86
2017-08-04T04:09:39.131Z,1002.91
2017-08-04T04:10:39.760Z,1002.92
2017-08-04T04:11:40.393Z,1002.93
2017-08-04T04:12:40.996Z,1002.93
2017-08-04T04:13:41.614Z,1002.97
2017-08-04T04:14:42.224Z,1002.91
2017-08-04T04:15:42.838Z,1002.91
2017-08-04T04:16:43.448Z,1002.95
2017-08-04T04:17:44.060Z,1002.92
2017-08-04T04:18:44.663Z,1002.96
2017-08-04T04:19:45.281Z,1002.99
2017-08-04T04:20:45.904Z,1003.01
2017-08-04T04:21:46.525Z,1003.00
2017-08-04T04:22:47.150Z,1003.03
2017-08-04T04:23:47.772Z,1003.06
2017-08-04T04:24:48.399Z,1002.98
2017-08-04T04:25:49.007Z,1003.01
2017-08-04T04:26:49.619Z,1002.98
2017-08-04T04:27:50.247Z,1002.99
2017-08-04T04:28:50.874Z,1002.92
2017-08-04T04:29:51.492Z,1002.91
2017-08-04T04:30:52.107Z,1002.93
2017-08-04T04:31:52.733Z,1002.93
2017-08-04T04:32:53.352Z,1002.99
2017-08-04T04:33:53.973Z,1003.01
2017-08-04T04:34:54.599Z,1002.97
2017-08-04T04:35:55.209Z,1002.95
2017-08-04T04:36:55.836Z,1002.97
2017-08-04T04:37:56.460Z,1002.91
2017-08-04T04:38:57.078Z,1002.91
2017-08-04T04:39:57.682Z,1002.87
2017-08-04T04:40:58.301Z,1002.85
2017-08-04T04:41:58.924Z,1002.77
2017-08-04T04:42:59.525Z,1002.80
2017-08-04T04:44:00.150Z,1002.78
2017-08-04T04:45:00.775Z,1002.79
2017-08-04T04:46:01.384Z,1002.81
2017-08-04T04:47:01.992Z,1002.77
2017-08-04T04:48:02.618Z,1002.80
2017-08-04T04:49:03.245Z,1002.79
2017-08-04T04:50:03.865Z,1002.76
2017-08-04T04:51:04.491Z,1002.72
2017-08-04T04:52:05.122Z,1002.75
2017-08-04T04:53:05.746Z,1002.77
2017-08-04T04:54:06.373Z,1002.76
2017-08-04T04:55:06.993Z,1002.75
2017-08-04T04:56:07.597Z,1002.79
2017-08-04T04:57:08.205Z,1002.80
2017-08-04T04:58:08.822Z,1002.81
2017-08-04T04:59:09.456Z,1002.77
2017-08-04T05:00:10.072Z,1002.82
2017-08-04T05:01:10.679Z,1002.84
2017-08-04T05:02:11.290Z,1002.85
2017-08-04T05:03:11.895Z,1002.83
2017-08-04T05:04:12.500Z,1002.88
2017-08-04T05:05:13.116Z,1002.93
2017-08-04T05:06:13.719Z,1002.93
2017-08-04T05:07:14.351Z,1002.95
2017-08-04T05:08:14.989Z,1002.92
2017-08-04T05:09:15.605Z,1002.98
2017-08-04T05:10:16.230Z,1002.99
2017-08-04T05:11:16.846Z,1002.96
2017-08-04T05:12:17.467Z,1003.00
2017-08-04T05:13:18.074Z,1003.00
2017-08-04T05:14:18.696Z,1002.98
2017-08-04T05:15:19.324Z,1002.97
2017-08-04T05:16:19.947Z,1002.91
2017-08-04T05:17:20.581Z,1002.92
2017-08-04T05:18:21.226Z,1002.89
2017-08-04T05:19:21.863Z,1002.84
2017-08-04T05:20:22.483Z,1002.86
2017-08-04T05:21:23.105Z,1002.84
2017-08-04T05:22:23.718Z,1002.83
2017-08-04T05:23:24.325Z,1002.83
2017-08-04T05:24:24.952Z,1002.89
2017-08-04T05:25:25.587Z,1002.88
2017-08-04T05:26:26.211Z,1002.93
2017-08-04T05:27:26.834Z,1002.92
2017-08-04T05:28:27.452Z,1002.95
2017-08-04T05:29:28.077Z,1002.93
2017-08-04T05:30:28.698Z,1002.99
2017-08-04T05:31:29.307Z,1003.02
2017-08-04T05:32:29.920Z,1003.04
2017-08-04T05:33:30.539Z,1003.06
2017-08-04T05:34:31.152Z,1003.08
2017-08-04T05:35:31.787Z,1003.06
2017-08-04T05:36:32.397Z,1003.09
2017-08-04T05:37:33.024Z,1003.14
2017-08-04T05:38:33.650Z,1003.16
2017-08-04T05:39:34.315Z,1003.15
2017-08-04T05:40:34.939Z,1003.14
2017-08-04T05:41:35.576Z,1003.11
2017-08-04T05:42:36.195Z,1003.10
2017-08-04T05:43:36.806Z,1003.10
2017-08-04T05:44:37.418Z,1003.11
2017-08-04T05:45:38.049Z,1003.09
2017-08-04T05:46:38.675Z,1003.12
2017-08-04T05:47:39.279Z,1003.08
2017-08-04T05:48:39.913Z,1003.08
2017-08-04T05:49:40.507Z,1003.06
2017-08-04T05:50:41.118Z,1003.10
2017-08-04T05:51:41.725Z,1003.09
2017-08-04T05:52:42.340Z,1003.08
2017-08-04T05:53:42.955Z,1003.06
2017-08-04T05:54:43.575Z,1003.06
2017-08-04T05:55:44.215Z,1003.08
2017-08-04T05:56:44.846Z,1003.10
2017-08-04T05:57:45.484Z,1003.06
2017-08-04T05:58:46.090Z,1003.08
2017-08-04T05:59:46.717Z,1003.06
2017-08-04T06:00:47.357Z,1003.10
2017-08-04T06:02:13.652Z,1003.09
2017-08-04T06:03:14.271Z,1003.07
2017-08-04T06:04:14.887Z,1003.06
2017-08-04T06:05:15.509Z,1003.08
2017-08-04T06:06:16.131Z,1003.03
2017-08-04T06:07:16.765Z,1003.03
2017-08-04T06:08:17.392Z,1003.03
2017-08-04T06:09:18.023Z,1003.03
2017-08-04T06:10:18.658Z,1003.02
2017-08-04T06:11:19.283Z,1003.02
2017-08-04T06:12:19.919Z,1003.01
2017-08-04T06:13:20.552Z,1003.06
2017-08-04T06:14:21.169Z,1003.08
2017-08-04T06:15:21.785Z,1003.10
2017-08-04T06:16:22.406Z,1003.14
2017-08-04T06:17:23.038Z,1003.17
2017-08-04T06:18:23.662Z,1003.24
2017-08-04T06:19:24.278Z,1003.26
2017-08-04T06:20:24.899Z,1003.33
2017-08-04T06:21:25.516Z,1003.27
2017-08-04T06:22:26.148Z,1003.23
2017-08-04T06:23:26.756Z,1003.24
2017-08-04T06:24:27.473Z,1003.24
2017-08-04T06:25:28.138Z,1003.20
2017-08-04T06:26:28.755Z,1003.26
2017-08-04T06:27:29.378Z,1003.27
2017-08-04T06:28:29.996Z,1003.28
2017-08-04T06:29:30.629Z,1003.32
2017-08-04T06:30:31.261Z,1003.28
2017-08-04T06:31:31.885Z,1003.29
2017-08-04T06:32:32.511Z,1003.28
2017-08-04T06:33:33.131Z,1003.34
2017-08-04T06:34:33.787Z,1003.33
2017-08-04T06:35:34.387Z,1003.34
2017-08-04T06:36:35.032Z,1003.35
2017-08-04T06:37:35.647Z,1003.31
2017-08-04T06:38:36.256Z,1003.37
2017-08-04T06:39:36.921Z,1003.40
2017-08-04T06:40:37.540Z,1003.42
2017-08-04T06:41:38.174Z,1003.49
2017-08-04T06:42:38.809Z,1003.36
2017-08-04T06:43:39.448Z,1003.41
2017-08-04T06:44:40.071Z,1003.40
2017-08-04T06:45:40.680Z,1003.46
2017-08-04T06:46:41.296Z,1003.46
2017-08-04T06:47:41.927Z,1003.36
2017-08-04T06:48:42.534Z,1003.33
2017-08-04T06:49:43.154Z,1003.29
2017-08-04T06:50:43.776Z,1003.32
2017-08-04T06:51:44.394Z,1003.26
2017-08-04T06:52:45.006Z,1003.28
2017-08-04T06:53:45.635Z,1003.32
2017-08-04T06:54:46.262Z,1003.32
2017-08-04T06:55:46.895Z,1003.35
2017-08-04T06:56:47.522Z,1003.36
2017-08-04T06:57:48.141Z,1003.36
2017-08-04T06:58:48.773Z,1003.42
2017-08-04T06:59:49.386Z,1003.43
2017-08-04T07:00:50.018Z,1003.45
2017-08-04T07:01:50.639Z,1003.44
2017-08-04T07:02:51.262Z,1003.41
2017-08-04T07:03:51.888Z,1003.33
2017-08-04T07:04:52.504Z,1003.33
2017-08-04T07:05:53.135Z,1003.29
2017-08-04T07:06:53.792Z,1003.31
2017-08-04T07:07:54.486Z,1003.29
2017-08-04T07:08:55.093Z,1003.23
2017-08-04T07:09:55.728Z,1003.31
2017-08-04T07:10:56.352Z,1003.28
2017-08-04T07:11:56.987Z,1003.32
2017-08-04T07:12:57.613Z,1003.30
2017-08-04T07:13:58.234Z,1003.25
2017-08-04T07:14:58.848Z,1003.25
2017-08-04T07:15:59.471Z,1003.24
2017-08-04T07:17:00.104Z,1003.22
2017-08-04T07:18:00.734Z,1003.25
2017-08-04T07:19:01.360Z,1003.28
2017-08-04T07:20:01.992Z,1003.30
2017-08-04T07:21:02.618Z,1003.31
2017-08-04T07:22:03.261Z,1003.33
2017-08-04T07:23:03.892Z,1003.35
2017-08-04T07:24:04.505Z,1003.33
2017-08-04T07:25:05.125Z,1003.32
2017-08-04T07:26:05.748Z,1003.33
2017-08-04T07:27:06.370Z,1003.33
2017-08-04T07:28:06.994Z,1003.32
2017-08-04T07:29:07.621Z,1003.34
2017-08-04T07:30:08.448Z,1003.30
2017-08-04T07:31:09.082Z,1003.31
2017-08-04T07:32:09.713Z,1003.30
2017-08-04T07:33:10.339Z,1003.31
2017-08-04T07:34:10.967Z,1003.30
2017-08-04T07:35:11.600Z,1003.36
2017-08-04T07:36:12.222Z,1003.32
2017-08-04T07:37:12.853Z,1003.35
2017-08-04T07:38:13.485Z,1003.33
2017-08-04T07:39:14.115Z,1003.37
2017-08-04T07:40:14.749Z,1003.31
2017-08-04T07:41:15.381Z,1003.32
2017-08-04T07:42:15.999Z,1003.31
2017-08-04T07:43:16.646Z,1003.33
2017-08-04T07:44:17.283Z,1003.38
2017-08-04T07:45:17.901Z,1003.34
2017-08-04T07:46:18.535Z,1003.37
2017-08-04T07:47:19.166Z,1003.28
2017-08-04T07:48:19.782Z,1003.33
2017-08-04T07:49:20.415Z,1003.32
2017-08-04T07:50:21.040Z,1003.17
2017-08-04T07:51:21.674Z,1003.35
2017-08-04T07:52:22.301Z,1003.25
2017-08-04T07:53:22.936Z,1003.23
2017-08-04T07:54:23.579Z,1003.26
2017-08-04T07:55:24.203Z,1003.26
2017-08-04T07:56:24.829Z,1003.23
2017-08-04T07:57:25.436Z,1003.21
2017-08-04T07:58:26.058Z,1003.16
2017-08-04T07:59:26.688Z,1003.25
2017-08-04T08:00:27.323Z,1003.29
2017-08-04T08:01:27.952Z,1003.29
2017-08-04T08:02:28.589Z,1003.28
2017-08-04T08:03:29.206Z,1003.30
2017-08-04T08:04:29.819Z,1003.22
2017-08-04T08:05:30.434Z,1003.28
2017-08-04T08:06:31.051Z,1003.26
2017-08-04T08:07:31.678Z,1003.25
2017-08-04T08:08:32.291Z,1003.25
2017-08-04T08:09:32.901Z,1003.30
2017-08-04T08:10:33.522Z,1003.28
2017-08-04T08:11:34.155Z,1003.28
2017-08-04T08:12:34.790Z,1003.30
2017-08-04T08:13:35.428Z,1003.29
2017-08-04T08:14:36.048Z,1003.31
2017-08-04T08:15:36.674Z,1003.19
2017-08-04T08:16:37.302Z,1003.27
2017-08-04T08:17:37.937Z,1003.28
2017-08-04T08:18:38.562Z,1003.23
2017-08-04T08:19:39.177Z,1003.21
2017-08-04T08:20:39.797Z,1003.17
2017-08-04T08:21:40.432Z,1003.13
2017-08-04T08:22:41.050Z,1003.21
2017-08-04T08:23:41.663Z,1003.14
2017-08-04T08:24:42.278Z,1003.22
2017-08-04T08:25:42.892Z,1003.25
2017-08-04T08:26:43.524Z,1003.23
2017-08-04T08:27:44.145Z,1003.28
2017-08-04T08:28:44.782Z,1003.23
2017-08-04T08:29:45.397Z,1003.31
2017-08-04T08:30:46.024Z,1003.28
2017-08-04T08:31:46.751Z,1003.32
2017-08-04T08:32:47.470Z,1003.39
2017-08-04T08:33:48.091Z,1003.44
2017-08-04T08:34:48.719Z,1003.38
2017-08-04T08:35:49.344Z,1003.34
2017-08-04T08:36:49.963Z,1003.41
2017-08-04T08:37:50.581Z,1003.35
2017-08-04T08:38:51.225Z,1003.35
2017-08-04T08:39:51.856Z,1003.41
2017-08-04T08:40:52.480Z,1003.35
2017-08-04T08:41:53.110Z,1003.39
2017-08-04T08:42:53.745Z,1003.35
2017-08-04T08:43:54.385Z,1003.39
2017-08-04T08:44:54.998Z,1003.42
2017-08-04T08:45:55.636Z,1003.30
2017-08-04T08:46:56.274Z,1003.38
2017-08-04T08:47:56.907Z,1003.31
2017-08-04T08:48:57.540Z,1003.37
2017-08-04T08:49:58.167Z,1003.39
2017-08-04T08:50:58.792Z,1003.40
2017-08-04T08:51:59.409Z,1003.47
2017-08-04T08:53:00.024Z,1003.46
2017-08-04T08:54:00.655Z,1003.45
2017-08-04T08:55:01.296Z,1003.54
2017-08-04T08:56:01.920Z,1003.57
2017-08-04T08:57:02.554Z,1003.59
2017-08-04T08:58:03.168Z,1003.59
2017-08-04T08:59:03.796Z,1003.50
2017-08-04T09:00:04.413Z,1003.49
2017-08-04T09:01:05.038Z,1003.48
2017-08-04T09:02:05.681Z,1003.47
2017-08-04T09:03:06.316Z,1003.47
2017-08-04T09:04:06.948Z,1003.46
2017-08-04T09:05:07.578Z,1003.50
2017-08-04T09:06:08.201Z,1003.54
2017-08-04T09:07:08.821Z,1003.54
2017-08-04T09:08:09.456Z,1003.52
2017-08-04T09:09:10.091Z,1003.46
2017-08-04T09:10:10.724Z,1003.56
2017-08-04T09:11:11.366Z,1003.49
2017-08-04T09:12:11.987Z,1003.43
2017-08-04T09:13:12.629Z,1003.43
2017-08-04T09:14:13.272Z,1003.37
2017-08-04T09:15:13.924Z,1003.39
2017-08-04T09:16:14.573Z,1003.41
2017-08-04T09:17:15.204Z,1003.42
2017-08-04T09:18:15.847Z,1003.42
2017-08-04T09:19:16.493Z,1003.49
2017-08-04T09:20:17.133Z,1003.50
2017-08-04T09:21:17.760Z,1003.54
2017-08-04T09:22:18.380Z,1003.41
2017-08-04T09:23:19.020Z,1003.46
2017-08-04T09:24:19.662Z,1003.49
2017-08-04T09:25:20.316Z,1003.47
2017-08-04T09:26:20.933Z,1003.56
2017-08-04T09:27:21.572Z,1003.42
2017-08-04T09:28:22.207Z,1003.43
2017-08-04T09:29:22.837Z,1003.47
2017-08-04T09:30:23.481Z,1003.47
2017-08-04T09:31:24.096Z,1003.40
2017-08-04T09:32:24.743Z,1003.48
2017-08-04T09:33:25.360Z,1003.45
2017-08-04T09:34:25.998Z,1003.55
2017-08-04T09:35:26.640Z,1003.59
2017-08-04T09:36:27.269Z,1003.57
2017-08-04T09:37:27.920Z,1003.55
2017-08-04T09:38:28.531Z,1003.60
2017-08-04T09:39:29.159Z,1003.57
2017-08-04T09:40:29.789Z,1003.45
2017-08-04T09:41:30.418Z,1003.50
2017-08-04T09:42:31.054Z,1003.52
2017-08-04T09:43:31.690Z,1003.52
2017-08-04T09:44:32.334Z,1003.62
2017-08-04T09:45:32.955Z,1003.66
2017-08-04T09:46:33.589Z,1003.55
2017-08-04T09:47:34.223Z,1003.51
2017-08-04T09:48:34.860Z,1003.51
2017-08-04T09:49:35.500Z,1003.51
2017-08-04T09:50:36.138Z,1003.50
2017-08-04T09:51:36.783Z,1003.54
2017-08-04T09:52:37.423Z,1003.47
2017-08-04T09:53:38.033Z,1003.47
2017-08-04T09:54:38.661Z,1003.43
2017-08-04T09:55:39.290Z,1003.47
2017-08-04T09:56:39.916Z,1003.41
2017-08-04T09:57:40.547Z,1003.47
2017-08-04T09:58:41.173Z,1003.44
2017-08-04T09:59:41.810Z,1003.49
2017-08-04T10:00:42.456Z,1003.48
2017-08-04T10:01:43.084Z,1003.47
2017-08-04T10:02:43.720Z,1003.46
2017-08-04T10:03:44.355Z,1003.46
2017-08-04T10:04:44.968Z,1003.43
2017-08-04T10:05:45.592Z,1003.42
2017-08-04T10:06:46.223Z,1003.49
2017-08-04T10:07:46.858Z,1003.45
2017-08-04T10:08:47.510Z,1003.43
2017-08-04T10:09:48.141Z,1003.33
2017-08-04T10:10:48.765Z,1003.37
2017-08-04T10:11:49.396Z,1003.39
2017-08-04T10:12:50.036Z,1003.40
2017-08-04T10:13:50.654Z,1003.38
2017-08-04T10:14:51.291Z,1003.39
2017-08-04T10:15:51.916Z,1003.42
2017-08-04T10:16:52.539Z,1003.40
2017-08-04T10:17:53.160Z,1003.36
2017-08-04T10:18:53.792Z,1003.45
2017-08-04T10:19:54.423Z,1003.50
2017-08-04T10:20:55.067Z,1003.53
2017-08-04T10:21:55.687Z,1003.55
2017-08-04T10:22:56.321Z,1003.62
2017-08-04T10:23:56.950Z,1003.57
2017-08-04T10:24:57.576Z,1003.66
2017-08-04T10:25:58.189Z,1003.64
2017-08-04T10:26:58.823Z,1003.67
2017-08-04T10:27:59.461Z,1003.70
2017-08-04T10:29:00.098Z,1003.71
2017-08-04T10:30:00.709Z,1003.71
2017-08-04T10:31:01.340Z,1003.70
2017-08-04T10:32:01.958Z,1003.63
2017-08-04T10:33:02.592Z,1003.66
2017-08-04T10:34:03.230Z,1003.70
2017-08-04T10:35:03.869Z,1003.69
2017-08-04T10:36:04.521Z,1003.72
2017-08-04T10:37:05.151Z,1003.70
2017-08-04T10:38:05.762Z,1003.69
2017-08-04T10:39:06.400Z,1003.75
2017-08-04T10:40:07.007Z,1003.76
2017-08-04T10:41:07.635Z,1003.65
2017-08-04T10:42:08.262Z,1003.77
2017-08-04T10:43:08.894Z,1003.77
2017-08-04T10:44:09.533Z,1003.79
2017-08-04T10:45:10.159Z,1003.78
2017-08-04T10:46:10.799Z,1003.82
2017-08-04T10:47:11.435Z,1003.71
2017-08-04T10:48:12.050Z,1003.73
2017-08-04T10:49:12.688Z,1003.72
2017-08-04T10:50:13.316Z,1003.74
2017-08-04T10:51:13.933Z,1003.79
2017-08-04T10:52:14.580Z,1003.81
2017-08-04T10:53:15.204Z,1003.83
2017-08-04T10:54:15.840Z,1003.83
2017-08-04T10:55:16.482Z,1003.87
2017-08-04T10:56:17.107Z,1003.81
2017-08-04T10:57:17.725Z,1003.76
2017-08-04T10:58:18.368Z,1003.79
2017-08-04T10:59:18.980Z,1003.81
2017-08-04T11:00:19.601Z,1003.65
2017-08-04T11:01:20.241Z,1003.75
2017-08-04T11:02:20.878Z,1003.74
2017-08-04T11:03:21.515Z,1003.74
2017-08-04T11:04:22.127Z,1003.76
2017-08-04T11:05:22.766Z,1003.75
2017-08-04T11:06:23.400Z,1003.74
2017-08-04T11:07:24.021Z,1003.77
2017-08-04T11:08:24.664Z,1003.75
2017-08-04T11:09:25.303Z,1003.73
2017-08-04T11:10:25.941Z,1003.87
2017-08-04T11:11:26.578Z,1003.85
2017-08-04T11:12:27.214Z,1003.85
2017-08-04T11:13:27.844Z,1003.79
2017-08-04T11:14:28.487Z,1003.77
2017-08-04T11:15:29.112Z,1003.84
2017-08-04T11:16:29.743Z,1003.79
2017-08-04T11:17:30.372Z,1003.78
2017-08-04T11:18:31.018Z,1003.92
2017-08-04T11:19:31.658Z,1003.78
2017-08-04T11:20:32.286Z,1003.71
2017-08-04T11:21:32.917Z,1003.68
2017-08-04T11:22:33.527Z,1003.66
2017-08-04T11:23:34.162Z,1003.74
2017-08-04T11:24:34.801Z,1003.72
2017-08-04T11:25:35.415Z,1003.76
2017-08-04T11:26:36.048Z,1003.79
2017-08-04T11:27:36.675Z,1003.83
2017-08-04T11:28:37.316Z,1003.80
2017-08-04T11:29:37.953Z,1003.79
2017-08-04T11:30:38.586Z,1003.88
2017-08-04T11:31:39.232Z,1004.02
2017-08-04T11:32:39.871Z,1003.90
2017-08-04T11:33:40.489Z,1003.92
2017-08-04T11:34:41.129Z,1003.93
2017-08-04T11:35:41.763Z,1003.90
2017-08-04T11:36:42.396Z,1003.98
2017-08-04T11:37:43.034Z,1003.97
2017-08-04T11:38:43.676Z,1004.01
2017-08-04T11:39:44.313Z,1003.98
2017-08-04T11:40:44.945Z,1003.98
2017-08-04T11:41:45.563Z,1003.99
2017-08-04T11:42:46.193Z,1003.95
2017-08-04T11:43:46.806Z,1004.07
2017-08-04T11:44:47.438Z,1004.08
2017-08-04T11:45:48.056Z,1004.05
2017-08-04T11:46:48.682Z,1004.08
2017-08-04T11:47:49.316Z,1004.12
2017-08-04T11:48:49.939Z,1004.09
2017-08-04T11:49:50.584Z,1004.11
2017-08-04T11:50:51.217Z,1003.98
2017-08-04T11:51:52.080Z,1003.98
2017-08-04T11:52:52.772Z,1004.08
2017-08-04T11:53:53.405Z,1004.03
2017-08-04T11:54:54.043Z,1004.07
2017-08-04T11:55:54.686Z,1004.04
2017-08-04T11:56:55.327Z,1004.13
2017-08-04T11:57:55.961Z,1004.10
2017-08-04T11:58:56.595Z,1004.15
2017-08-04T11:59:57.232Z,1004.17
2017-08-04T12:00:57.868Z,1004.15
2017-08-04T12:01:58.501Z,1004.17
2017-08-04T12:02:59.131Z,1004.18
2017-08-04T12:03:59.755Z,1004.20
2017-08-04T12:05:00.384Z,1004.19
2017-08-04T12:06:01.026Z,1004.24
2017-08-04T12:07:01.659Z,1004.17
2017-08-04T12:08:02.296Z,1004.20
2017-08-04T12:09:02.942Z,1004.26
2017-08-04T12:10:03.578Z,1004.21
2017-08-04T12:11:04.201Z,1004.22
2017-08-04T12:12:04.846Z,1004.24
2017-08-04T12:13:05.495Z,1004.29
2017-08-04T12:14:06.126Z,1004.33